Forside
METAR-TAF:

METAR-TAF

Lufthavne :

Mashhad, Iran

Breddekreds: 36-16N, længdekreds: 059-38E, højde: 989 m

Aktuelle vejr

Denne rapport blev lavet for 20 minutter siden, kl. 16:30 UTC
Vind 4 kt fra sydøst
Temperatur 8°C
Fugtighed 57%
Tryk 1023 hPa
Sigt 10 km eller mere
Spredte skyer i en højde af 3000 ft

METAR: OIMM 231630Z 14004KT 9999 SCT030 08/M00 Q1022 A3020

Tid: 20:20 (16:50 UTC)

Vejrudsigter

Denne rapport blev lavet for 5 timer og 20 minutter siden, kl. 11:30 UTC
Foreløbig gælder fra 23 på 12 UTC til 24 på 18 UTC
Vind 8 kt fra nordøst
Sigt: 8000 m
Nogle få skyer i en højde af 3500 ft
Midlertidig
fra 23 på 12 UTC til 23 på 18 UTC
Vind 14 kt fra sydsydøst
Spredte skyer i en højde af 3500 ft, Optårnet Cumulus.
Midlertidig
fra 24 på 12 UTC til 24 på 18 UTC
Vind 14 kt fra sydsydøst

TAF: OIMM 231130Z 2312/2418 05008KT 8000 FEW035 TEMPO 2312/2318 15014KT SCT035TCU TEMPO 2412/2418 15014KT

Vejrobservationer og prognoser fra mere end 4000 lufthavne (METAR og TAF).

De gule og røde prikker repræsenterer de meteorologiske stationer.

Flyt musen over at se navnet på stationen.

Så klik over at se vejr observationer og prognoser.

At skifte det kort: Klik på de grønne knapper med et sort kors for at zoome ind; på den grønne knap med en bindestreg for at zoome ud; eller på de grønne pile for tilstødende kort.


METAR-TAF: